createdAt,value
2022-09-17T00:00:36.351Z,1.35
2022-09-17T00:05:21.374Z,1.10
2022-09-17T00:10:07.219Z,1.10
2022-09-17T00:14:54.957Z,0.93
2022-09-17T00:19:40.295Z,1.27
2022-09-17T00:24:25.402Z,1.35
2022-09-17T00:29:10.805Z,1.23
2022-09-17T00:33:58.776Z,1.02
2022-09-17T00:38:44.345Z,1.05
2022-09-17T00:43:45.064Z,1.10
2022-09-17T00:48:30.666Z,1.10
2022-09-17T00:53:21.575Z,1.38
2022-09-17T00:58:10.507Z,1.00
2022-09-17T01:02:58.569Z,1.00
2022-09-17T01:08:06.193Z,1.30
2022-09-17T01:13:06.356Z,1.00
2022-09-17T01:18:05.207Z,1.10
2022-09-17T01:23:09.290Z,1.25
2022-09-17T01:28:26.695Z,1.20
2022-09-17T01:33:20.605Z,1.15
2022-09-17T01:38:13.310Z,1.23
2022-09-17T01:43:07.267Z,1.20
2022-09-17T01:47:57.882Z,1.02
2022-09-17T01:52:49.096Z,1.10
2022-09-17T01:57:39.198Z,1.00
2022-09-17T02:02:31.164Z,1.35
2022-09-17T02:07:22.943Z,1.05
2022-09-17T02:12:16.450Z,1.15
2022-09-17T02:17:09.446Z,1.08
2022-09-17T02:22:03.917Z,1.38
2022-09-17T02:26:53.940Z,1.30
2022-09-17T02:31:42.833Z,1.20
2022-09-17T02:36:27.904Z,1.20
2022-09-17T02:41:19.851Z,1.00
2022-09-17T02:46:21.354Z,1.00
2022-09-17T02:51:26.659Z,1.45
2022-09-17T03:01:07.791Z,1.00
2022-09-17T03:05:53.666Z,1.08
2022-09-17T03:10:41.493Z,1.65
2022-09-17T03:15:27.018Z,1.10
2022-09-17T03:20:12.945Z,1.30
2022-09-17T03:24:58.198Z,1.17
2022-09-17T03:29:46.006Z,1.20
2022-09-17T03:34:31.322Z,1.35
2022-09-17T03:39:16.359Z,1.23
2022-09-17T03:44:01.947Z,1.10
2022-09-17T03:48:49.938Z,1.25
2022-09-17T03:53:35.386Z,1.00
2022-09-17T03:58:20.643Z,1.25
2022-09-17T04:03:06.178Z,1.00
2022-09-17T04:07:53.769Z,1.10
2022-09-17T04:12:39.190Z,1.20
2022-09-17T04:17:24.194Z,1.27
2022-09-17T04:22:09.599Z,1.23
2022-09-17T04:26:57.425Z,1.25
2022-09-17T04:31:42.876Z,1.30
2022-09-17T04:36:27.957Z,1.52
2022-09-17T04:41:13.551Z,1.20
2022-09-17T04:46:01.722Z,1.45
2022-09-17T04:50:47.314Z,1.40
2022-09-17T04:55:32.439Z,1.33
2022-09-17T05:00:18.816Z,1.33
2022-09-17T05:05:06.834Z,1.42
2022-09-17T05:09:52.277Z,1.23
2022-09-17T05:14:37.569Z,1.50
2022-09-17T05:19:22.889Z,1.70
2022-09-17T05:24:10.727Z,1.70
2022-09-17T05:28:56.104Z,1.67
2022-09-17T05:33:41.189Z,1.50
2022-09-17T05:38:26.625Z,1.77
2022-09-17T05:43:14.605Z,1.50
2022-09-17T05:48:00.759Z,1.85
2022-09-17T05:52:45.879Z,1.40
2022-09-17T05:57:32.360Z,1.30
2022-09-17T06:02:20.142Z,1.50
2022-09-17T06:07:07.777Z,1.45
2022-09-17T06:11:53.444Z,1.77
2022-09-17T06:16:38.843Z,2.08
2022-09-17T06:21:26.727Z,1.70
2022-09-17T06:26:12.827Z,2.00
2022-09-17T06:30:58.319Z,1.70
2022-09-17T06:35:45.024Z,2.20
2022-09-17T06:40:32.723Z,2.00
2022-09-17T06:45:18.176Z,2.00
2022-09-17T06:50:03.506Z,1.60
2022-09-17T06:54:48.921Z,1.65
2022-09-17T06:59:36.563Z,2.15
2022-09-17T07:04:22.090Z,2.22
2022-09-17T07:09:10.886Z,2.22
2022-09-17T07:13:56.686Z,1.35
2022-09-17T07:18:44.370Z,1.73
2022-09-17T07:23:32.051Z,2.40
2022-09-17T07:28:17.158Z,5.57
2022-09-17T07:33:04.968Z,10.38
2022-09-17T07:37:52.740Z,11.40
2022-09-17T07:42:38.077Z,17.25
2022-09-17T07:47:23.171Z,20.38
2022-09-17T07:52:08.608Z,25.85
2022-09-17T07:56:56.291Z,21.20
2022-09-17T08:01:42.729Z,31.48
2022-09-17T08:06:29.073Z,36.55
2022-09-17T08:11:32.391Z,35.90
2022-09-17T08:16:26.219Z,46.42
2022-09-17T08:21:13.954Z,45.75
2022-09-17T08:26:01.591Z,48.95
2022-09-17T08:30:46.716Z,54.88
2022-09-17T08:35:34.624Z,47.83
2022-09-17T08:40:24.843Z,46.47
2022-09-17T08:45:19.377Z,54.88
2022-09-17T08:50:07.435Z,54.67
2022-09-17T08:55:03.964Z,53.78
2022-09-17T08:59:55.938Z,53.80
2022-09-17T09:05:02.358Z,57.17
2022-09-17T09:09:51.828Z,44.67
2022-09-17T09:14:43.231Z,41.58
2022-09-17T09:19:31.088Z,36.22
2022-09-17T09:24:26.486Z,28.75
2022-09-17T09:29:25.974Z,31.23
2022-09-17T09:34:16.158Z,31.48
2022-09-17T09:39:05.423Z,26.45
2022-09-17T09:44:10.704Z,25.10
2022-09-17T09:49:07.898Z,20.98
2022-09-17T09:54:11.865Z,16.50
2022-09-17T09:58:57.206Z,14.65
2022-09-17T10:03:46.349Z,15.73
2022-09-17T10:08:33.654Z,16.45
2022-09-17T10:13:23.615Z,18.73
2022-09-17T10:18:16.413Z,16.95
2022-09-17T10:23:01.567Z,16.58
2022-09-17T10:27:49.076Z,16.23
2022-09-17T10:32:36.852Z,12.82
2022-09-17T10:37:37.364Z,6.00
2022-09-17T10:42:22.709Z,7.60
2022-09-17T10:47:11.006Z,8.15
2022-09-17T10:52:08.455Z,12.55
2022-09-17T10:56:57.971Z,6.13
2022-09-17T11:01:56.575Z,5.38
2022-09-17T11:06:54.026Z,4.10
2022-09-17T11:11:51.749Z,6.68
2022-09-17T11:16:43.387Z,6.65
2022-09-17T11:21:46.081Z,9.02
2022-09-17T11:26:39.265Z,5.82
2022-09-17T11:31:37.435Z,8.30
2022-09-17T11:36:28.394Z,6.43
2022-09-17T11:41:19.132Z,9.85
2022-09-17T11:46:11.519Z,5.80
2022-09-17T11:51:05.531Z,5.40
2022-09-17T11:55:55.333Z,9.35
2022-09-17T12:00:48.346Z,8.05
2022-09-17T12:05:39.640Z,9.80
2022-09-17T12:10:45.360Z,10.55
2022-09-17T12:15:37.078Z,8.82
2022-09-17T12:20:30.467Z,8.45
2022-09-17T12:25:16.633Z,7.30
2022-09-17T12:30:12.343Z,7.15
2022-09-17T12:35:05.172Z,7.72
2022-09-17T12:40:09.898Z,7.65
2022-09-17T12:45:30.191Z,5.75
2022-09-17T12:50:23.395Z,9.20
2022-09-17T12:55:25.184Z,9.40
2022-09-17T13:00:14.826Z,5.97
2022-09-17T13:05:32.754Z,9.98
2022-09-17T13:10:48.270Z,6.85
2022-09-17T13:15:49.455Z,7.72
2022-09-17T13:20:46.555Z,8.60
2022-09-17T13:25:31.721Z,8.82
2022-09-17T13:30:18.698Z,9.05
2022-09-17T13:35:43.497Z,9.38
2022-09-17T13:40:34.455Z,9.70
2022-09-17T13:45:23.932Z,4.23
2022-09-17T13:50:12.387Z,2.13
2022-09-17T13:54:57.524Z,6.78
2022-09-17T13:59:57.089Z,5.03
2022-09-17T14:04:54.492Z,6.35
2022-09-17T14:09:54.574Z,5.50
2022-09-17T14:14:55.126Z,3.75
2022-09-17T14:19:51.717Z,5.57
2022-09-17T14:24:42.489Z,7.90
2022-09-17T14:29:49.661Z,7.33
2022-09-17T14:34:39.149Z,4.60
2022-09-17T14:39:28.161Z,7.82
2022-09-17T14:44:18.572Z,10.43
2022-09-17T14:49:18.151Z,6.63
2022-09-17T14:54:19.471Z,7.65
2022-09-17T14:59:05.369Z,4.22
2022-09-17T15:03:50.396Z,1.58
2022-09-17T15:08:36.244Z,8.57
2022-09-17T15:13:28.385Z,9.70
2022-09-17T15:18:16.732Z,6.22
2022-09-17T15:23:13.424Z,7.03
2022-09-17T15:28:01.562Z,3.70
2022-09-17T15:32:54.318Z,3.45
2022-09-17T15:38:11.632Z,1.70
2022-09-17T15:42:54.095Z,1.85
2022-09-17T15:47:51.802Z,2.38
2022-09-17T15:52:39.790Z,2.90
2022-09-17T15:57:25.919Z,2.33
2022-09-17T16:02:29.478Z,3.90
2022-09-17T16:07:31.610Z,3.90
2022-09-17T16:12:21.875Z,1.60
2022-09-17T16:17:25.960Z,1.42
2022-09-17T16:22:11.280Z,2.33
2022-09-17T16:26:56.387Z,1.40
2022-09-17T16:31:45.100Z,1.50
2022-09-17T16:36:32.292Z,1.08
2022-09-17T16:41:17.722Z,1.10
2022-09-17T16:46:03.449Z,1.60
2022-09-17T16:50:51.308Z,0.57
2022-09-17T16:55:36.476Z,1.00
2022-09-17T17:00:23.033Z,0.75
2022-09-17T17:05:08.575Z,0.60
2022-09-17T17:09:56.609Z,0.80
2022-09-17T17:14:41.627Z,1.92
2022-09-17T17:19:27.185Z,0.98
2022-09-17T17:24:12.704Z,1.20
2022-09-17T17:29:01.411Z,0.75
2022-09-17T17:33:46.437Z,0.70
2022-09-17T17:38:31.749Z,1.00
2022-09-17T17:43:17.126Z,0.90
2022-09-17T17:48:05.518Z,0.65
2022-09-17T17:52:50.714Z,0.80
2022-09-17T17:57:36.052Z,1.70
2022-09-17T18:02:21.344Z,1.73
2022-09-17T18:07:09.434Z,1.50
2022-09-17T18:11:54.539Z,0.73
2022-09-17T18:16:40.159Z,1.88
2022-09-17T18:21:26.393Z,2.90
2022-09-17T18:26:15.922Z,1.60
2022-09-17T18:31:06.983Z,1.00
2022-09-17T18:35:57.020Z,1.50
2022-09-17T18:40:42.348Z,1.67
2022-09-17T18:45:30.276Z,1.23
2022-09-17T18:50:15.438Z,1.50
2022-09-17T18:55:01.783Z,1.08
2022-09-17T18:59:46.805Z,1.23
2022-09-17T19:04:34.733Z,1.23
2022-09-17T19:09:20.037Z,1.30
2022-09-17T19:14:05.476Z,2.17
2022-09-17T19:18:50.444Z,1.40
2022-09-17T19:23:38.443Z,1.33
2022-09-17T19:28:23.575Z,1.33
2022-09-17T19:33:08.871Z,2.55
2022-09-17T19:37:54.385Z,1.10
2022-09-17T19:42:42.284Z,1.00
2022-09-17T19:47:27.401Z,1.17
2022-09-17T19:52:12.739Z,1.10
2022-09-17T19:56:57.736Z,1.20
2022-09-17T20:01:49.252Z,1.38
2022-09-17T20:06:37.343Z,1.23
2022-09-17T20:11:25.038Z,1.50
2022-09-17T20:16:12.975Z,1.30
2022-09-17T20:21:01.163Z,1.23
2022-09-17T20:25:47.504Z,1.25
2022-09-17T20:30:33.028Z,1.38
2022-09-17T20:35:18.603Z,1.30
2022-09-17T20:40:07.668Z,1.40
2022-09-17T20:44:52.779Z,1.55
2022-09-17T20:49:38.166Z,1.70
2022-09-17T20:54:23.156Z,2.00
2022-09-17T20:59:18.908Z,2.50
2022-09-17T21:04:05.233Z,3.33
2022-09-17T21:08:51.818Z,5.43
2022-09-17T21:13:38.943Z,7.85
2022-09-17T21:18:27.004Z,11.65
2022-09-17T21:23:11.995Z,14.55
2022-09-17T21:27:57.523Z,19.85
2022-09-17T21:32:42.558Z,23.70
2022-09-17T21:37:30.496Z,27.58
2022-09-17T21:42:15.554Z,31.08
2022-09-17T21:47:00.845Z,31.27
2022-09-17T21:51:46.268Z,34.88
2022-09-17T21:56:34.843Z,35.80
2022-09-17T22:01:21.721Z,37.58
2022-09-17T22:06:09.435Z,39.22
2022-09-17T22:10:54.452Z,39.92
2022-09-17T22:15:42.423Z,40.30
2022-09-17T22:20:27.927Z,40.58
2022-09-17T22:25:13.618Z,37.13
2022-09-17T22:29:59.586Z,38.40
2022-09-17T22:34:48.776Z,40.40
2022-09-17T22:39:33.828Z,38.38
2022-09-17T22:44:21.861Z,31.77
2022-09-17T22:49:06.883Z,26.52
2022-09-17T22:53:55.020Z,22.45
2022-09-17T22:58:40.413Z,22.92
2022-09-17T23:03:28.505Z,22.48
2022-09-17T23:08:13.929Z,24.55
2022-09-17T23:13:04.964Z,25.17
2022-09-17T23:17:50.031Z,25.23
2022-09-17T23:22:35.925Z,25.60
2022-09-17T23:27:21.179Z,26.70
2022-09-17T23:32:09.421Z,25.30
2022-09-17T23:36:54.496Z,26.42
2022-09-17T23:41:43.697Z,29.48
2022-09-17T23:46:30.361Z,32.10
2022-09-17T23:51:19.325Z,34.75
2022-09-17T23:56:05.558Z,27.13
